createdAt,value
2018-06-01T00:00:50.000Z,36
2018-06-01T00:01:50.000Z,36
2018-06-01T00:03:50.000Z,36
2018-06-01T00:04:50.000Z,37
2018-06-01T00:06:50.000Z,36
2018-06-01T00:07:50.000Z,37
2018-06-01T00:08:50.000Z,37
2018-06-01T00:09:50.000Z,37
2018-06-01T00:10:50.000Z,36
2018-06-01T00:11:50.000Z,36
2018-06-01T00:12:50.000Z,36
2018-06-01T00:13:50.000Z,36
2018-06-01T00:14:50.000Z,36
2018-06-01T00:15:50.000Z,36
2018-06-01T00:16:50.000Z,36
2018-06-01T00:17:50.000Z,36
2018-06-01T00:18:50.000Z,36
2018-06-01T00:19:50.000Z,36
2018-06-01T00:20:50.000Z,36
2018-06-01T00:21:50.000Z,36
2018-06-01T00:22:50.000Z,36
2018-06-01T00:23:50.000Z,36
2018-06-01T00:25:50.000Z,36
2018-06-01T00:26:50.000Z,36
2018-06-01T00:28:50.000Z,36
2018-06-01T00:29:50.000Z,36
2018-06-01T00:30:50.000Z,37
2018-06-01T00:31:50.000Z,36
2018-06-01T00:33:50.000Z,36
2018-06-01T00:35:50.000Z,36
2018-06-01T00:36:50.000Z,37
2018-06-01T00:38:50.000Z,37
2018-06-01T00:39:50.000Z,37
2018-06-01T00:40:50.000Z,37
2018-06-01T00:41:50.000Z,37
2018-06-01T00:42:50.000Z,37
2018-06-01T00:43:50.000Z,37
2018-06-01T00:44:50.000Z,37
2018-06-01T00:45:50.000Z,37
2018-06-01T00:46:50.000Z,37
2018-06-01T00:47:50.000Z,37
2018-06-01T00:48:50.000Z,37
2018-06-01T00:49:50.000Z,36
2018-06-01T00:50:50.000Z,36
2018-06-01T00:51:50.000Z,36
2018-06-01T00:52:50.000Z,36
2018-06-01T00:53:50.000Z,36
2018-06-01T00:55:50.000Z,36
2018-06-01T00:56:50.000Z,37
2018-06-01T00:57:50.000Z,37
2018-06-01T00:58:50.000Z,36
2018-06-01T00:59:50.000Z,37
2018-06-01T01:00:50.000Z,37
2018-06-01T01:01:50.000Z,36
2018-06-01T01:02:50.000Z,37
2018-06-01T01:03:50.000Z,36
2018-06-01T01:04:50.000Z,37
2018-06-01T01:05:50.000Z,36
2018-06-01T01:07:50.000Z,36
2018-06-01T01:08:50.000Z,37
2018-06-01T01:09:50.000Z,36
2018-06-01T01:10:50.000Z,37
2018-06-01T01:11:50.000Z,37
2018-06-01T01:12:50.000Z,36
2018-06-01T01:13:50.000Z,37
2018-06-01T01:14:50.000Z,37
2018-06-01T01:16:50.000Z,36
2018-06-01T01:17:50.000Z,37
2018-06-01T01:18:51.000Z,37
2018-06-01T01:19:51.000Z,36
2018-06-01T01:20:51.000Z,36
2018-06-01T01:21:51.000Z,36
2018-06-01T01:22:51.000Z,37
2018-06-01T01:23:51.000Z,37
2018-06-01T01:24:51.000Z,36
2018-06-01T01:25:51.000Z,36
2018-06-01T01:26:51.000Z,36
2018-06-01T01:27:51.000Z,36
2018-06-01T01:28:51.000Z,36
2018-06-01T01:29:51.000Z,36
2018-06-01T01:30:51.000Z,36
2018-06-01T01:31:51.000Z,36
2018-06-01T01:32:51.000Z,36
2018-06-01T01:34:51.000Z,36
2018-06-01T01:35:51.000Z,36
2018-06-01T01:36:51.000Z,37
2018-06-01T01:37:51.000Z,37
2018-06-01T01:39:51.000Z,36
2018-06-01T01:40:51.000Z,36
2018-06-01T01:42:51.000Z,36
2018-06-01T01:43:51.000Z,36
2018-06-01T01:44:51.000Z,37
2018-06-01T01:46:51.000Z,36
2018-06-01T01:47:51.000Z,36
2018-06-01T01:48:51.000Z,36
2018-06-01T01:50:51.000Z,36
2018-06-01T01:51:51.000Z,37
2018-06-01T01:52:51.000Z,36
2018-06-01T01:53:51.000Z,37
2018-06-01T01:54:51.000Z,37
2018-06-01T01:55:51.000Z,37
2018-06-01T01:56:51.000Z,37
2018-06-01T01:57:51.000Z,37
2018-06-01T01:59:51.000Z,37
2018-06-01T02:00:51.000Z,37
2018-06-01T02:01:51.000Z,36
2018-06-01T02:02:51.000Z,37
2018-06-01T02:03:51.000Z,36
2018-06-01T02:05:51.000Z,36
2018-06-01T02:06:51.000Z,37
2018-06-01T02:07:51.000Z,37
2018-06-01T02:08:51.000Z,37
2018-06-01T02:09:51.000Z,37
2018-06-01T02:10:51.000Z,37
2018-06-01T02:11:51.000Z,37
2018-06-01T02:13:51.000Z,36
2018-06-01T02:14:51.000Z,37
2018-06-01T02:15:51.000Z,37
2018-06-01T02:16:51.000Z,37
2018-06-01T02:17:51.000Z,37
2018-06-01T02:18:51.000Z,37
2018-06-01T02:19:51.000Z,37
2018-06-01T02:20:51.000Z,37
2018-06-01T02:21:51.000Z,37
2018-06-01T02:22:51.000Z,37
2018-06-01T02:24:51.000Z,36
2018-06-01T02:25:51.000Z,37
2018-06-01T02:26:51.000Z,37
2018-06-01T02:27:51.000Z,37
2018-06-01T02:28:51.000Z,37
2018-06-01T02:29:51.000Z,37
2018-06-01T02:30:51.000Z,37
2018-06-01T02:32:51.000Z,37
2018-06-01T02:33:51.000Z,37
2018-06-01T02:34:51.000Z,37
2018-06-01T02:35:51.000Z,37
2018-06-01T02:36:51.000Z,37
2018-06-01T02:37:51.000Z,37
2018-06-01T02:38:51.000Z,37
2018-06-01T02:39:51.000Z,37
2018-06-01T02:40:51.000Z,37
2018-06-01T02:41:51.000Z,36
2018-06-01T02:42:51.000Z,37
2018-06-01T02:43:51.000Z,36
2018-06-01T02:44:51.000Z,37
2018-06-01T02:45:51.000Z,37
2018-06-01T02:46:51.000Z,36
2018-06-01T02:47:51.000Z,37
2018-06-01T02:48:51.000Z,37
2018-06-01T02:49:51.000Z,37
2018-06-01T02:51:51.000Z,36
2018-06-01T02:52:51.000Z,37
2018-06-01T02:53:51.000Z,36
2018-06-01T02:54:51.000Z,37
2018-06-01T02:56:51.000Z,37
2018-06-01T02:57:51.000Z,37
2018-06-01T02:59:51.000Z,37
2018-06-01T03:00:51.000Z,37
2018-06-01T03:01:51.000Z,37
2018-06-01T03:02:51.000Z,37
2018-06-01T03:04:51.000Z,36
2018-06-01T03:05:51.000Z,37
2018-06-01T03:06:51.000Z,37
2018-06-01T03:08:51.000Z,36
2018-06-01T03:09:51.000Z,37
2018-06-01T03:10:51.000Z,37
2018-06-01T03:11:51.000Z,37
2018-06-01T03:12:51.000Z,37
2018-06-01T03:13:51.000Z,37
2018-06-01T03:14:51.000Z,37
2018-06-01T03:15:51.000Z,37
2018-06-01T03:16:51.000Z,37
2018-06-01T03:17:51.000Z,37
2018-06-01T03:18:51.000Z,37
2018-06-01T03:19:51.000Z,37
2018-06-01T03:20:51.000Z,37
2018-06-01T03:21:51.000Z,37
2018-06-01T03:23:51.000Z,36
2018-06-01T03:24:51.000Z,37
2018-06-01T03:26:51.000Z,37
2018-06-01T03:27:51.000Z,37
2018-06-01T03:28:51.000Z,37
2018-06-01T03:29:51.000Z,37
2018-06-01T03:31:51.000Z,36
2018-06-01T03:32:51.000Z,37
2018-06-01T03:34:51.000Z,37
2018-06-01T03:35:51.000Z,37
2018-06-01T03:37:51.000Z,37
2018-06-01T03:39:51.000Z,38
2018-06-01T03:40:51.000Z,39
2018-06-01T03:41:51.000Z,39
2018-06-01T03:43:51.000Z,39
2018-06-01T03:44:51.000Z,40
2018-06-01T03:45:51.000Z,40
2018-06-01T03:47:51.000Z,40
2018-06-01T03:48:51.000Z,40
2018-06-01T03:49:51.000Z,40
2018-06-01T03:50:51.000Z,40
2018-06-01T03:51:51.000Z,40
2018-06-01T03:53:51.000Z,40
2018-06-01T03:54:51.000Z,40
2018-06-01T03:55:51.000Z,40
2018-06-01T03:56:51.000Z,40
2018-06-01T03:57:51.000Z,40
2018-06-01T03:58:51.000Z,40
2018-06-01T04:00:51.000Z,40
2018-06-01T04:01:51.000Z,40
2018-06-01T04:02:51.000Z,40
2018-06-01T04:03:51.000Z,40
2018-06-01T04:04:51.000Z,40
2018-06-01T04:05:51.000Z,40
2018-06-01T04:06:51.000Z,40
2018-06-01T04:07:51.000Z,40
2018-06-01T04:08:51.000Z,39
2018-06-01T04:09:51.000Z,39
2018-06-01T04:10:51.000Z,39
2018-06-01T04:11:51.000Z,39
2018-06-01T04:12:51.000Z,39
2018-06-01T04:13:51.000Z,39
2018-06-01T04:14:51.000Z,39
2018-06-01T04:15:51.000Z,39
2018-06-01T04:16:51.000Z,39
2018-06-01T04:17:51.000Z,39
2018-06-01T04:18:51.000Z,39
2018-06-01T04:20:51.000Z,39
2018-06-01T04:21:51.000Z,39
2018-06-01T04:23:51.000Z,38
2018-06-01T04:24:51.000Z,39
2018-06-01T04:25:51.000Z,39
2018-06-01T04:26:51.000Z,40
2018-06-01T04:27:51.000Z,41
2018-06-01T04:28:51.000Z,42
2018-06-01T04:29:51.000Z,42
2018-06-01T04:30:51.000Z,43
2018-06-01T04:31:51.000Z,44
2018-06-01T04:33:51.000Z,45
2018-06-01T04:34:51.000Z,45
2018-06-01T04:35:51.000Z,46
2018-06-01T04:36:51.000Z,46
2018-06-01T04:37:51.000Z,46
2018-06-01T04:38:51.000Z,46
2018-06-01T04:39:51.000Z,46
2018-06-01T04:41:51.000Z,47
2018-06-01T04:42:51.000Z,47
2018-06-01T04:44:51.000Z,48
2018-06-01T04:46:51.000Z,49
2018-06-01T04:47:51.000Z,49
2018-06-01T04:48:51.000Z,50
2018-06-01T04:49:51.000Z,51
2018-06-01T04:50:51.000Z,51
2018-06-01T04:51:51.000Z,51
2018-06-01T04:52:51.000Z,52
2018-06-01T04:53:51.000Z,53
2018-06-01T04:54:51.000Z,53
2018-06-01T04:55:51.000Z,53
2018-06-01T04:56:51.000Z,52
2018-06-01T04:57:51.000Z,52
2018-06-01T04:58:51.000Z,52
2018-06-01T04:59:51.000Z,51
2018-06-01T05:00:51.000Z,51
2018-06-01T05:01:51.000Z,51
2018-06-01T05:03:51.000Z,50
2018-06-01T05:04:51.000Z,50
2018-06-01T05:06:51.000Z,50
2018-06-01T05:07:51.000Z,50
2018-06-01T05:08:51.000Z,50
2018-06-01T05:09:51.000Z,49
2018-06-01T05:11:51.000Z,49
2018-06-01T05:12:51.000Z,49
2018-06-01T05:13:51.000Z,49
2018-06-01T05:14:51.000Z,49
2018-06-01T05:15:51.000Z,49
2018-06-01T05:16:51.000Z,48
2018-06-01T05:17:51.000Z,49
2018-06-01T05:18:51.000Z,48
2018-06-01T05:19:51.000Z,48
2018-06-01T05:20:51.000Z,48
2018-06-01T05:21:51.000Z,48
2018-06-01T05:22:51.000Z,48
2018-06-01T05:24:51.000Z,48
2018-06-01T05:25:51.000Z,48
2018-06-01T05:26:51.000Z,48
2018-06-01T05:27:51.000Z,48
2018-06-01T05:28:51.000Z,48
2018-06-01T05:29:51.000Z,47
2018-06-01T05:31:51.000Z,47
2018-06-01T05:32:51.000Z,47
2018-06-01T05:33:51.000Z,47
2018-06-01T05:34:51.000Z,47
2018-06-01T05:35:51.000Z,47
2018-06-01T05:36:51.000Z,47
2018-06-01T05:37:51.000Z,47
2018-06-01T05:38:51.000Z,47
2018-06-01T05:39:51.000Z,47
2018-06-01T05:40:51.000Z,47
2018-06-01T05:41:51.000Z,47
2018-06-01T05:43:51.000Z,47
2018-06-01T05:44:51.000Z,47
2018-06-01T05:45:51.000Z,47
2018-06-01T05:46:51.000Z,47
2018-06-01T05:47:51.000Z,47
2018-06-01T05:48:51.000Z,47
2018-06-01T05:49:51.000Z,46
2018-06-01T05:50:51.000Z,46
2018-06-01T05:51:51.000Z,46
2018-06-01T05:52:51.000Z,46
2018-06-01T05:53:51.000Z,46
2018-06-01T05:54:51.000Z,46
2018-06-01T05:55:51.000Z,46
2018-06-01T05:56:51.000Z,46
2018-06-01T05:57:51.000Z,46
2018-06-01T05:58:51.000Z,46
2018-06-01T05:59:51.000Z,46
2018-06-01T06:00:51.000Z,46
2018-06-01T06:02:51.000Z,45
2018-06-01T06:03:51.000Z,45
2018-06-01T06:04:51.000Z,45
2018-06-01T06:05:51.000Z,45
2018-06-01T06:06:51.000Z,45
2018-06-01T06:07:51.000Z,45
2018-06-01T06:08:51.000Z,45
2018-06-01T06:09:51.000Z,45
2018-06-01T06:10:51.000Z,45
2018-06-01T06:11:51.000Z,45
2018-06-01T06:12:51.000Z,45
2018-06-01T06:13:51.000Z,45
2018-06-01T06:14:51.000Z,45
2018-06-01T06:15:51.000Z,45
2018-06-01T06:16:51.000Z,45
2018-06-01T06:17:51.000Z,45
2018-06-01T06:18:51.000Z,45
2018-06-01T06:19:51.000Z,45
2018-06-01T06:20:51.000Z,45
2018-06-01T06:21:51.000Z,45
2018-06-01T06:23:51.000Z,44
2018-06-01T06:24:51.000Z,45
2018-06-01T06:25:51.000Z,45
2018-06-01T06:26:51.000Z,45
2018-06-01T06:28:51.000Z,45
2018-06-01T06:29:51.000Z,45
2018-06-01T06:30:51.000Z,45
2018-06-01T06:31:51.000Z,45
2018-06-01T06:32:51.000Z,45
2018-06-01T06:33:51.000Z,45
2018-06-01T06:34:51.000Z,45
2018-06-01T06:36:50.000Z,45
2018-06-01T06:37:50.000Z,45
2018-06-01T06:38:50.000Z,45
2018-06-01T06:39:50.000Z,45
2018-06-01T06:40:50.000Z,45
2018-06-01T06:41:50.000Z,45
2018-06-01T06:42:50.000Z,45
2018-06-01T06:43:50.000Z,45
2018-06-01T06:45:50.000Z,45
2018-06-01T06:46:50.000Z,45
2018-06-01T06:47:50.000Z,45
2018-06-01T06:49:50.000Z,45
2018-06-01T06:50:50.000Z,46
2018-06-01T06:51:50.000Z,46
2018-06-01T06:52:50.000Z,46
2018-06-01T06:53:50.000Z,46
2018-06-01T06:54:50.000Z,46
2018-06-01T06:55:50.000Z,46
2018-06-01T06:56:50.000Z,46
2018-06-01T06:57:50.000Z,46
2018-06-01T06:58:50.000Z,46
2018-06-01T06:59:50.000Z,46
2018-06-01T07:00:50.000Z,46
2018-06-01T07:01:50.000Z,46
2018-06-01T07:02:50.000Z,46
2018-06-01T07:03:50.000Z,46
2018-06-01T07:04:50.000Z,46
2018-06-01T07:05:50.000Z,46
2018-06-01T07:06:50.000Z,46
2018-06-01T07:07:50.000Z,46
2018-06-01T07:08:50.000Z,46
2018-06-01T07:09:50.000Z,46
2018-06-01T07:10:50.000Z,46
2018-06-01T07:11:50.000Z,46
2018-06-01T07:12:50.000Z,46
2018-06-01T07:14:50.000Z,46
2018-06-01T07:15:50.000Z,46
2018-06-01T07:16:50.000Z,46
2018-06-01T07:17:50.000Z,46
2018-06-01T07:18:50.000Z,46
2018-06-01T07:20:50.000Z,46
2018-06-01T07:21:50.000Z,46
2018-06-01T07:22:50.000Z,46
2018-06-01T07:23:50.000Z,46
2018-06-01T07:24:50.000Z,46
2018-06-01T07:25:50.000Z,46
2018-06-01T07:26:50.000Z,46
2018-06-01T07:28:50.000Z,46
2018-06-01T07:29:50.000Z,46
2018-06-01T07:30:50.000Z,46
2018-06-01T07:31:50.000Z,46
2018-06-01T07:32:50.000Z,46
2018-06-01T07:33:50.000Z,46
2018-06-01T07:34:50.000Z,46
2018-06-01T07:35:50.000Z,46
2018-06-01T07:36:50.000Z,46
2018-06-01T07:37:50.000Z,46
2018-06-01T07:39:50.000Z,46
2018-06-01T07:41:51.000Z,46
2018-06-01T07:42:51.000Z,46
2018-06-01T07:43:51.000Z,46
2018-06-01T07:44:51.000Z,46
2018-06-01T07:45:51.000Z,46
2018-06-01T07:46:51.000Z,46
2018-06-01T07:47:51.000Z,46
2018-06-01T07:48:51.000Z,46
2018-06-01T07:50:51.000Z,46
2018-06-01T07:51:51.000Z,46
2018-06-01T07:52:51.000Z,46
2018-06-01T07:53:51.000Z,46
2018-06-01T07:55:51.000Z,46
2018-06-01T07:56:51.000Z,46
2018-06-01T07:57:51.000Z,46
2018-06-01T07:59:51.000Z,46
2018-06-01T08:00:51.000Z,46
2018-06-01T08:01:51.000Z,46
2018-06-01T08:02:51.000Z,46
2018-06-01T08:03:51.000Z,46
2018-06-01T08:04:51.000Z,46
2018-06-01T08:06:50.000Z,46
2018-06-01T08:08:50.000Z,46
2018-06-01T08:09:50.000Z,46
2018-06-01T08:10:50.000Z,46
2018-06-01T08:11:50.000Z,46
2018-06-01T08:12:50.000Z,46
2018-06-01T08:13:50.000Z,46
2018-06-01T08:14:50.000Z,46
2018-06-01T08:15:50.000Z,46
2018-06-01T08:17:50.000Z,46
2018-06-01T08:18:50.000Z,46
2018-06-01T08:20:50.000Z,46
2018-06-01T08:21:50.000Z,46
2018-06-01T08:22:50.000Z,46
2018-06-01T08:23:50.000Z,47
2018-06-01T08:24:50.000Z,46
2018-06-01T08:25:50.000Z,47
2018-06-01T08:26:50.000Z,47
2018-06-01T08:27:50.000Z,47
2018-06-01T08:28:50.000Z,47
2018-06-01T08:29:50.000Z,47
2018-06-01T08:30:50.000Z,46
2018-06-01T08:31:50.000Z,46
2018-06-01T08:33:50.000Z,46
2018-06-01T08:34:50.000Z,46
2018-06-01T08:35:50.000Z,46
2018-06-01T08:36:50.000Z,46
2018-06-01T08:37:50.000Z,46
2018-06-01T08:38:50.000Z,46
2018-06-01T08:39:50.000Z,46
2018-06-01T08:40:50.000Z,46
2018-06-01T08:42:50.000Z,47
2018-06-01T08:43:50.000Z,47
2018-06-01T08:44:51.000Z,47
2018-06-01T08:45:51.000Z,47
2018-06-01T08:46:51.000Z,47
2018-06-01T08:47:51.000Z,48
2018-06-01T08:48:51.000Z,48
2018-06-01T08:50:51.000Z,48
2018-06-01T08:51:51.000Z,48
2018-06-01T08:53:51.000Z,48
2018-06-01T08:54:51.000Z,49
2018-06-01T08:56:51.000Z,49
2018-06-01T08:57:51.000Z,49
2018-06-01T08:58:51.000Z,48
2018-06-01T09:00:51.000Z,48
2018-06-01T09:01:51.000Z,49
2018-06-01T09:02:51.000Z,49
2018-06-01T09:03:51.000Z,49
2018-06-01T09:04:51.000Z,49
2018-06-01T09:06:51.000Z,49
2018-06-01T09:07:51.000Z,50
2018-06-01T09:09:51.000Z,49
2018-06-01T09:10:51.000Z,50
2018-06-01T09:11:51.000Z,49
2018-06-01T09:12:51.000Z,49
2018-06-01T09:13:51.000Z,49
2018-06-01T09:14:51.000Z,49
2018-06-01T09:15:51.000Z,49
2018-06-01T09:16:51.000Z,49
2018-06-01T09:17:51.000Z,48
2018-06-01T09:18:51.000Z,49
2018-06-01T09:19:51.000Z,49
2018-06-01T09:20:51.000Z,49
2018-06-01T09:21:51.000Z,49
2018-06-01T09:22:51.000Z,49
2018-06-01T09:23:51.000Z,49
2018-06-01T09:24:51.000Z,49
2018-06-01T09:25:51.000Z,49
2018-06-01T09:26:51.000Z,49
2018-06-01T09:27:51.000Z,49
2018-06-01T09:28:51.000Z,49
2018-06-01T09:29:51.000Z,49
2018-06-01T09:31:51.000Z,49
2018-06-01T09:32:51.000Z,49
2018-06-01T09:33:51.000Z,49
2018-06-01T09:34:51.000Z,50
2018-06-01T09:35:51.000Z,50
2018-06-01T09:37:51.000Z,49
2018-06-01T09:38:51.000Z,50
2018-06-01T09:39:51.000Z,50
2018-06-01T09:40:51.000Z,50
2018-06-01T09:41:51.000Z,50
2018-06-01T09:42:51.000Z,50
2018-06-01T09:43:51.000Z,50
2018-06-01T09:44:51.000Z,50
2018-06-01T09:46:51.000Z,50
2018-06-01T09:47:50.000Z,50
2018-06-01T09:48:50.000Z,50
2018-06-01T09:50:50.000Z,50
2018-06-01T09:51:50.000Z,50
2018-06-01T09:52:50.000Z,50
2018-06-01T09:53:50.000Z,50
2018-06-01T09:54:50.000Z,50
2018-06-01T09:55:50.000Z,50
2018-06-01T09:56:50.000Z,50
2018-06-01T09:57:50.000Z,50
2018-06-01T09:58:50.000Z,50
2018-06-01T09:59:50.000Z,50
2018-06-01T10:00:50.000Z,50
2018-06-01T10:01:50.000Z,50
2018-06-01T10:02:50.000Z,49
2018-06-01T10:04:50.000Z,49
2018-06-01T10:05:50.000Z,50
2018-06-01T10:06:50.000Z,49
2018-06-01T10:07:50.000Z,50
2018-06-01T10:08:50.000Z,49
2018-06-01T10:09:50.000Z,50
2018-06-01T10:10:50.000Z,49
2018-06-01T10:11:50.000Z,50
2018-06-01T10:12:50.000Z,50
2018-06-01T10:13:50.000Z,49
2018-06-01T10:14:50.000Z,49
2018-06-01T10:15:50.000Z,49
2018-06-01T10:16:50.000Z,49
2018-06-01T10:17:50.000Z,49
2018-06-01T10:18:50.000Z,49
2018-06-01T10:19:50.000Z,49
2018-06-01T10:20:50.000Z,49
2018-06-01T10:21:50.000Z,49
2018-06-01T10:22:50.000Z,49
2018-06-01T10:23:50.000Z,49
2018-06-01T10:24:50.000Z,49
2018-06-01T10:25:50.000Z,48
2018-06-01T10:26:50.000Z,48
2018-06-01T10:27:50.000Z,48
2018-06-01T10:28:50.000Z,48
2018-06-01T10:29:50.000Z,48
2018-06-01T10:30:50.000Z,48
2018-06-01T10:31:50.000Z,48
2018-06-01T10:32:50.000Z,48
2018-06-01T10:33:50.000Z,48
2018-06-01T10:34:50.000Z,47
2018-06-01T10:35:50.000Z,47
2018-06-01T10:36:50.000Z,47
2018-06-01T10:37:50.000Z,47
2018-06-01T10:38:50.000Z,47
2018-06-01T10:39:50.000Z,47
2018-06-01T10:40:50.000Z,46
2018-06-01T10:41:50.000Z,46
2018-06-01T10:42:50.000Z,45
2018-06-01T10:43:50.000Z,44
2018-06-01T10:44:50.000Z,43
2018-06-01T10:45:50.000Z,43
2018-06-01T10:47:50.000Z,43
2018-06-01T10:48:50.000Z,43
2018-06-01T10:49:50.000Z,43
2018-06-01T10:51:51.000Z,43
2018-06-01T10:52:51.000Z,43
2018-06-01T10:54:51.000Z,43
2018-06-01T10:55:51.000Z,43
2018-06-01T10:56:51.000Z,43
2018-06-01T10:57:51.000Z,44
2018-06-01T10:58:51.000Z,43
2018-06-01T10:59:51.000Z,43
2018-06-01T11:01:51.000Z,43
2018-06-01T11:02:51.000Z,44
2018-06-01T11:04:51.000Z,44
2018-06-01T11:05:51.000Z,44
2018-06-01T11:07:51.000Z,43
2018-06-01T11:08:51.000Z,43
2018-06-01T11:09:51.000Z,43
2018-06-01T11:10:51.000Z,43
2018-06-01T11:11:51.000Z,43
2018-06-01T11:12:51.000Z,43
2018-06-01T11:13:51.000Z,43
2018-06-01T11:14:51.000Z,42
2018-06-01T11:15:51.000Z,42
2018-06-01T11:16:51.000Z,42
2018-06-01T11:17:51.000Z,42
2018-06-01T11:18:51.000Z,41
2018-06-01T11:19:51.000Z,42
2018-06-01T11:20:51.000Z,42
2018-06-01T11:21:51.000Z,41
2018-06-01T11:22:51.000Z,42
2018-06-01T11:23:51.000Z,42
2018-06-01T11:24:51.000Z,42
2018-06-01T11:25:51.000Z,42
2018-06-01T11:26:51.000Z,42
2018-06-01T11:27:51.000Z,42
2018-06-01T11:29:51.000Z,43
2018-06-01T11:31:51.000Z,43
2018-06-01T11:32:51.000Z,44
2018-06-01T11:33:51.000Z,44
2018-06-01T11:34:51.000Z,44
2018-06-01T11:35:51.000Z,44
2018-06-01T11:36:51.000Z,44
2018-06-01T11:37:51.000Z,44
2018-06-01T11:38:51.000Z,44
2018-06-01T11:39:51.000Z,44
2018-06-01T11:40:51.000Z,44
2018-06-01T11:41:51.000Z,45
2018-06-01T11:42:51.000Z,45
2018-06-01T11:44:51.000Z,44
2018-06-01T11:46:51.000Z,44
2018-06-01T11:47:51.000Z,45
2018-06-01T11:48:51.000Z,45
2018-06-01T11:49:51.000Z,45
2018-06-01T11:50:51.000Z,45
2018-06-01T11:51:51.000Z,45
2018-06-01T11:52:51.000Z,45
2018-06-01T11:53:51.000Z,45
2018-06-01T11:54:51.000Z,45
2018-06-01T11:55:51.000Z,45
2018-06-01T11:56:51.000Z,45
2018-06-01T11:57:51.000Z,45
2018-06-01T11:58:51.000Z,45
2018-06-01T11:59:51.000Z,45
2018-06-01T12:00:51.000Z,45
2018-06-01T12:01:51.000Z,45
2018-06-01T12:05:37.000Z,45
2018-06-01T12:06:37.000Z,45
2018-06-01T12:07:37.000Z,46
2018-06-01T12:08:37.000Z,46
2018-06-01T12:09:37.000Z,45
2018-06-01T12:10:37.000Z,45
2018-06-01T12:11:37.000Z,45
2018-06-01T12:13:37.000Z,45
2018-06-01T12:14:37.000Z,45
2018-06-01T12:15:37.000Z,45
2018-06-01T12:16:37.000Z,45
2018-06-01T12:17:37.000Z,45
2018-06-01T12:18:37.000Z,45
2018-06-01T12:19:37.000Z,45
2018-06-01T12:20:37.000Z,45
2018-06-01T12:21:37.000Z,45
2018-06-01T12:22:37.000Z,45
2018-06-01T12:23:37.000Z,45
2018-06-01T12:25:37.000Z,45
2018-06-01T12:26:37.000Z,45
2018-06-01T12:27:37.000Z,45
2018-06-01T12:28:37.000Z,45
2018-06-01T12:29:37.000Z,46
2018-06-01T12:30:37.000Z,45
2018-06-01T12:31:37.000Z,46
2018-06-01T12:32:37.000Z,46
2018-06-01T12:33:37.000Z,46
2018-06-01T12:34:37.000Z,45
2018-06-01T12:35:37.000Z,45
2018-06-01T12:37:37.000Z,45
2018-06-01T12:38:37.000Z,45
2018-06-01T12:39:37.000Z,44
2018-06-01T12:40:37.000Z,44
2018-06-01T12:41:37.000Z,43
2018-06-01T12:43:37.000Z,43
2018-06-01T12:44:37.000Z,42
2018-06-01T12:46:37.000Z,42
2018-06-01T12:47:37.000Z,42
2018-06-01T12:49:37.000Z,41
2018-06-01T12:50:37.000Z,41
2018-06-01T12:51:37.000Z,41
2018-06-01T12:52:37.000Z,41
2018-06-01T12:53:37.000Z,41
2018-06-01T12:55:37.000Z,41
2018-06-01T12:56:37.000Z,42
2018-06-01T12:58:37.000Z,42
2018-06-01T12:59:37.000Z,42
2018-06-01T13:00:37.000Z,42
2018-06-01T13:01:37.000Z,42
2018-06-01T13:02:37.000Z,42
2018-06-01T13:03:37.000Z,42
2018-06-01T13:04:37.000Z,42
2018-06-01T13:05:37.000Z,42
2018-06-01T13:06:37.000Z,42
2018-06-01T13:07:37.000Z,42
2018-06-01T13:09:37.000Z,42
2018-06-01T13:10:37.000Z,42
2018-06-01T13:11:37.000Z,42
2018-06-01T13:12:37.000Z,42
2018-06-01T13:13:37.000Z,42
2018-06-01T13:14:37.000Z,42
2018-06-01T13:15:37.000Z,42
2018-06-01T13:16:37.000Z,42
2018-06-01T13:17:37.000Z,42
2018-06-01T13:18:37.000Z,42
2018-06-01T13:19:37.000Z,41
2018-06-01T13:21:37.000Z,41
2018-06-01T13:22:37.000Z,41
2018-06-01T13:23:37.000Z,41
2018-06-01T13:24:37.000Z,41
2018-06-01T13:25:37.000Z,41
2018-06-01T13:26:37.000Z,41
2018-06-01T13:27:37.000Z,41
2018-06-01T13:28:37.000Z,41
2018-06-01T13:29:37.000Z,41
2018-06-01T13:30:37.000Z,41
2018-06-01T13:31:37.000Z,41
2018-06-01T13:32:37.000Z,40
2018-06-01T13:33:37.000Z,41
2018-06-01T13:34:37.000Z,41
2018-06-01T13:35:37.000Z,40
2018-06-01T13:36:37.000Z,40
2018-06-01T13:37:37.000Z,40
2018-06-01T13:38:37.000Z,40
2018-06-01T13:40:37.000Z,40
2018-06-01T13:41:37.000Z,40
2018-06-01T13:43:37.000Z,41
2018-06-01T13:44:37.000Z,41
2018-06-01T13:46:37.000Z,41
2018-06-01T13:47:37.000Z,42
2018-06-01T13:48:37.000Z,42
2018-06-01T13:50:37.000Z,42
2018-06-01T13:51:37.000Z,42
2018-06-01T13:52:37.000Z,42
2018-06-01T13:53:37.000Z,43
2018-06-01T13:54:37.000Z,43
2018-06-01T13:55:37.000Z,43
2018-06-01T13:56:37.000Z,44
2018-06-01T13:57:37.000Z,43
2018-06-01T13:58:37.000Z,44
2018-06-01T13:59:37.000Z,43
2018-06-01T14:00:37.000Z,44
2018-06-01T14:01:37.000Z,43
2018-06-01T14:02:36.000Z,44
2018-06-01T14:03:36.000Z,44
2018-06-01T14:04:36.000Z,44
2018-06-01T14:05:36.000Z,44
2018-06-01T14:06:36.000Z,44
2018-06-01T14:07:36.000Z,44
2018-06-01T14:08:36.000Z,44
2018-06-01T14:09:36.000Z,44
2018-06-01T14:11:36.000Z,44
2018-06-01T14:12:36.000Z,45
2018-06-01T14:13:36.000Z,45
2018-06-01T14:14:36.000Z,45
2018-06-01T14:15:36.000Z,45
2018-06-01T14:19:22.000Z,45
2018-06-01T14:20:22.000Z,45
2018-06-01T14:21:22.000Z,45
2018-06-01T14:22:22.000Z,45
2018-06-01T14:23:22.000Z,45
2018-06-01T14:24:22.000Z,45
2018-06-01T14:25:22.000Z,45
2018-06-01T14:26:22.000Z,45
2018-06-01T14:27:22.000Z,45
2018-06-01T14:28:22.000Z,44
2018-06-01T14:29:22.000Z,44
2018-06-01T14:30:22.000Z,44
2018-06-01T14:31:22.000Z,44
2018-06-01T14:32:22.000Z,44
2018-06-01T14:34:22.000Z,44
2018-06-01T14:35:22.000Z,44
2018-06-01T14:36:22.000Z,44
2018-06-01T14:37:22.000Z,44
2018-06-01T14:38:22.000Z,44
2018-06-01T14:39:22.000Z,44
2018-06-01T14:40:22.000Z,44
2018-06-01T14:42:22.000Z,44
2018-06-01T14:44:22.000Z,44
2018-06-01T14:45:22.000Z,44
2018-06-01T14:47:22.000Z,44
2018-06-01T14:48:22.000Z,44
2018-06-01T14:50:22.000Z,44
2018-06-01T14:51:22.000Z,44
2018-06-01T14:52:22.000Z,44
2018-06-01T14:54:22.000Z,44
2018-06-01T14:55:22.000Z,44
2018-06-01T14:57:22.000Z,44
2018-06-01T14:58:22.000Z,44
2018-06-01T15:00:22.000Z,44
2018-06-01T15:01:22.000Z,44
2018-06-01T15:02:22.000Z,44
2018-06-01T15:03:22.000Z,44
2018-06-01T15:04:22.000Z,44
2018-06-01T15:05:22.000Z,44
2018-06-01T15:06:22.000Z,44
2018-06-01T15:07:22.000Z,44
2018-06-01T15:08:22.000Z,44
2018-06-01T15:09:22.000Z,44
2018-06-01T15:10:22.000Z,44
2018-06-01T15:11:22.000Z,44
2018-06-01T15:12:22.000Z,44
2018-06-01T15:13:22.000Z,44
2018-06-01T15:14:22.000Z,44
2018-06-01T15:15:22.000Z,44
2018-06-01T15:16:22.000Z,44
2018-06-01T15:17:22.000Z,43
2018-06-01T15:18:22.000Z,44
2018-06-01T15:19:22.000Z,43
2018-06-01T15:20:22.000Z,43
2018-06-01T15:24:14.000Z,43
2018-06-01T15:25:14.000Z,44
2018-06-01T15:26:14.000Z,44
2018-06-01T15:27:14.000Z,44
2018-06-01T15:28:14.000Z,44
2018-06-01T15:29:14.000Z,44
2018-06-01T15:30:14.000Z,44
2018-06-01T15:31:14.000Z,44
2018-06-01T15:34:58.000Z,44
2018-06-01T15:35:58.000Z,44
2018-06-01T15:36:58.000Z,43
2018-06-01T15:38:58.000Z,43
2018-06-01T15:39:58.000Z,43
2018-06-01T15:41:58.000Z,43
2018-06-01T15:42:58.000Z,43
2018-06-01T15:43:58.000Z,43
2018-06-01T15:44:58.000Z,43
2018-06-01T15:45:58.000Z,43
2018-06-01T15:46:58.000Z,43
2018-06-01T15:47:58.000Z,43
2018-06-01T15:48:58.000Z,43
2018-06-01T15:49:58.000Z,43
2018-06-01T15:50:58.000Z,43
2018-06-01T15:51:58.000Z,43
2018-06-01T15:52:58.000Z,43
2018-06-01T15:54:58.000Z,43
2018-06-01T15:55:58.000Z,43
2018-06-01T15:57:58.000Z,43
2018-06-01T15:58:58.000Z,43
2018-06-01T15:59:58.000Z,43
2018-06-01T16:00:58.000Z,43
2018-06-01T16:01:58.000Z,43
2018-06-01T16:02:58.000Z,43
2018-06-01T16:03:58.000Z,43
2018-06-01T16:04:58.000Z,43
2018-06-01T16:05:58.000Z,43
2018-06-01T16:06:58.000Z,43
2018-06-01T16:07:58.000Z,43
2018-06-01T16:08:58.000Z,43
2018-06-01T16:09:58.000Z,43
2018-06-01T16:10:58.000Z,43
2018-06-01T16:11:58.000Z,43
2018-06-01T16:13:58.000Z,43
2018-06-01T16:14:58.000Z,43
2018-06-01T16:16:58.000Z,43
2018-06-01T16:17:58.000Z,43
2018-06-01T16:18:58.000Z,43
2018-06-01T16:19:58.000Z,43
2018-06-01T16:20:58.000Z,43
2018-06-01T16:21:58.000Z,43
2018-06-01T16:22:58.000Z,43
2018-06-01T16:23:58.000Z,43